sensor_id;sensor_type;location;lat;lon;timestamp;temperature;humidity
60455;DHT22;54989;53.398;6.564;2022-12-17T00:01:33;19.50;47.50
60455;DHT22;54989;53.398;6.564;2022-12-17T00:04:19;19.50;47.40
60455;DHT22;54989;53.398;6.564;2022-12-17T00:07:05;19.50;47.50
60455;DHT22;54989;53.398;6.564;2022-12-17T00:09:51;19.50;47.50
60455;DHT22;54989;53.398;6.564;2022-12-17T00:12:37;19.50;47.50
60455;DHT22;54989;53.398;6.564;2022-12-17T00:15:23;19.50;47.50
60455;DHT22;54989;53.398;6.564;2022-12-17T00:18:11;19.50;47.50
60455;DHT22;54989;53.398;6.564;2022-12-17T00:20:59;19.50;47.50
60455;DHT22;54989;53.398;6.564;2022-12-17T00:23:45;19.50;47.50
60455;DHT22;54989;53.398;6.564;2022-12-17T00:26:32;19.40;47.50
60455;DHT22;54989;53.398;6.564;2022-12-17T00:29:19;19.40;47.50
60455;DHT22;54989;53.398;6.564;2022-12-17T00:32:05;19.40;47.50
60455;DHT22;54989;53.398;6.564;2022-12-17T00:34:51;19.40;47.50
60455;DHT22;54989;53.398;6.564;2022-12-17T00:37:37;19.40;47.50
60455;DHT22;54989;53.398;6.564;2022-12-17T00:40:23;19.40;47.50
60455;DHT22;54989;53.398;6.564;2022-12-17T00:43:11;19.40;47.60
60455;DHT22;54989;53.398;6.564;2022-12-17T00:45:58;19.40;47.60
60455;DHT22;54989;53.398;6.564;2022-12-17T00:48:44;19.40;47.60
60455;DHT22;54989;53.398;6.564;2022-12-17T00:51:30;19.30;47.60
60455;DHT22;54989;53.398;6.564;2022-12-17T00:54:33;19.30;47.60
60455;DHT22;54989;53.398;6.564;2022-12-17T00:57:22;19.30;47.60
60455;DHT22;54989;53.398;6.564;2022-12-17T01:00:08;19.30;47.60
60455;DHT22;54989;53.398;6.564;2022-12-17T01:03:04;19.30;47.50
60455;DHT22;54989;53.398;6.564;2022-12-17T01:05:51;19.30;47.50
60455;DHT22;54989;53.398;6.564;2022-12-17T01:08:38;19.30;47.50
60455;DHT22;54989;53.398;6.564;2022-12-17T01:11:24;19.30;47.50
60455;DHT22;54989;53.398;6.564;2022-12-17T01:14:11;19.30;47.50
60455;DHT22;54989;53.398;6.564;2022-12-17T01:16:56;19.20;47.40
60455;DHT22;54989;53.398;6.564;2022-12-17T01:19:42;19.20;47.40
60455;DHT22;54989;53.398;6.564;2022-12-17T01:22:28;19.20;47.40
60455;DHT22;54989;53.398;6.564;2022-12-17T01:25:14;19.20;47.40
60455;DHT22;54989;53.398;6.564;2022-12-17T01:28:00;19.20;47.40
60455;DHT22;54989;53.398;6.564;2022-12-17T01:30:47;19.10;47.40
60455;DHT22;54989;53.398;6.564;2022-12-17T01:33:33;19.10;47.50
60455;DHT22;54989;53.398;6.564;2022-12-17T01:36:19;19.10;47.50
60455;DHT22;54989;53.398;6.564;2022-12-17T01:39:05;19.10;47.50
60455;DHT22;54989;53.398;6.564;2022-12-17T01:41:50;19.10;47.50
60455;DHT22;54989;53.398;6.564;2022-12-17T01:44:53;19.10;47.50
60455;DHT22;54989;53.398;6.564;2022-12-17T01:47:56;19.10;47.50
60455;DHT22;54989;53.398;6.564;2022-12-17T01:50:47;19.00;47.50
60455;DHT22;54989;53.398;6.564;2022-12-17T01:53:35;19.00;47.50
60455;DHT22;54989;53.398;6.564;2022-12-17T01:56:24;19.00;47.60
60455;DHT22;54989;53.398;6.564;2022-12-17T01:59:12;18.90;47.60
60455;DHT22;54989;53.398;6.564;2022-12-17T02:01:59;18.90;47.60
60455;DHT22;54989;53.398;6.564;2022-12-17T02:04:45;18.90;47.60
60455;DHT22;54989;53.398;6.564;2022-12-17T02:07:52;18.90;47.60
60455;DHT22;54989;53.398;6.564;2022-12-17T02:11:04;18.90;47.60
60455;DHT22;54989;53.398;6.564;2022-12-17T02:17:01;18.80;47.60
60455;DHT22;54989;53.398;6.564;2022-12-17T02:23:27;18.80;47.50
60455;DHT22;54989;53.398;6.564;2022-12-17T02:29:15;18.80;47.60
60455;DHT22;54989;53.398;6.564;2022-12-17T02:32:02;18.80;47.60
60455;DHT22;54989;53.398;6.564;2022-12-17T02:34:50;18.70;47.60
60455;DHT22;54989;53.398;6.564;2022-12-17T02:37:37;18.70;47.60
60455;DHT22;54989;53.398;6.564;2022-12-17T02:40:23;18.70;47.90
60455;DHT22;54989;53.398;6.564;2022-12-17T02:43:11;18.70;47.70
60455;DHT22;54989;53.398;6.564;2022-12-17T02:45:57;18.70;47.70
60455;DHT22;54989;53.398;6.564;2022-12-17T02:48:45;18.60;47.60
60455;DHT22;54989;53.398;6.564;2022-12-17T02:51:31;18.60;47.60
60455;DHT22;54989;53.398;6.564;2022-12-17T02:54:18;18.60;47.70
60455;DHT22;54989;53.398;6.564;2022-12-17T02:57:04;18.60;47.70
60455;DHT22;54989;53.398;6.564;2022-12-17T02:59:50;18.60;47.70
60455;DHT22;54989;53.398;6.564;2022-12-17T03:02:36;18.60;47.70
60455;DHT22;54989;53.398;6.564;2022-12-17T03:05:22;18.60;47.60
60455;DHT22;54989;53.398;6.564;2022-12-17T03:08:11;18.60;47.60
60455;DHT22;54989;53.398;6.564;2022-12-17T03:10:58;18.50;47.60
60455;DHT22;54989;53.398;6.564;2022-12-17T03:13:44;18.50;47.60
60455;DHT22;54989;53.398;6.564;2022-12-17T03:16:30;18.50;47.70
60455;DHT22;54989;53.398;6.564;2022-12-17T03:19:16;18.50;47.60
60455;DHT22;54989;53.398;6.564;2022-12-17T03:22:01;18.50;47.70
60455;DHT22;54989;53.398;6.564;2022-12-17T03:24:47;18.50;47.70
60455;DHT22;54989;53.398;6.564;2022-12-17T03:27:33;18.50;47.70
60455;DHT22;54989;53.398;6.564;2022-12-17T03:30:18;18.40;47.70
60455;DHT22;54989;53.398;6.564;2022-12-17T03:33:07;18.40;47.70
60455;DHT22;54989;53.398;6.564;2022-12-17T03:35:53;18.40;47.70
60455;DHT22;54989;53.398;6.564;2022-12-17T03:38:40;18.40;47.70
60455;DHT22;54989;53.398;6.564;2022-12-17T03:41:25;18.40;47.80
60455;DHT22;54989;53.398;6.564;2022-12-17T03:44:11;18.30;47.70
60455;DHT22;54989;53.398;6.564;2022-12-17T03:46:57;18.30;47.70
60455;DHT22;54989;53.398;6.564;2022-12-17T03:49:42;18.30;47.70
60455;DHT22;54989;53.398;6.564;2022-12-17T03:52:28;18.30;47.80
60455;DHT22;54989;53.398;6.564;2022-12-17T03:55:14;18.30;47.80
60455;DHT22;54989;53.398;6.564;2022-12-17T03:58:00;18.30;47.80
60455;DHT22;54989;53.398;6.564;2022-12-17T04:00:46;18.20;47.80
60455;DHT22;54989;53.398;6.564;2022-12-17T04:03:32;18.20;47.80
60455;DHT22;54989;53.398;6.564;2022-12-17T04:06:18;18.20;47.80
60455;DHT22;54989;53.398;6.564;2022-12-17T04:09:03;18.20;47.90
60455;DHT22;54989;53.398;6.564;2022-12-17T04:11:49;18.20;47.90
60455;DHT22;54989;53.398;6.564;2022-12-17T04:14:35;18.20;48.00
60455;DHT22;54989;53.398;6.564;2022-12-17T04:17:21;18.10;47.90
60455;DHT22;54989;53.398;6.564;2022-12-17T04:20:07;18.10;47.90
60455;DHT22;54989;53.398;6.564;2022-12-17T04:22:53;18.10;47.90
60455;DHT22;54989;53.398;6.564;2022-12-17T04:25:39;18.10;47.90
60455;DHT22;54989;53.398;6.564;2022-12-17T04:28:25;18.10;48.00
60455;DHT22;54989;53.398;6.564;2022-12-17T04:31:11;18.10;48.00
60455;DHT22;54989;53.398;6.564;2022-12-17T04:33:56;18.00;48.00
60455;DHT22;54989;53.398;6.564;2022-12-17T04:36:42;18.00;48.00
60455;DHT22;54989;53.398;6.564;2022-12-17T04:39:28;18.00;48.00
60455;DHT22;54989;53.398;6.564;2022-12-17T04:42:14;18.00;48.00
60455;DHT22;54989;53.398;6.564;2022-12-17T04:45:00;18.00;48.00
60455;DHT22;54989;53.398;6.564;2022-12-17T04:47:46;18.00;48.70
60455;DHT22;54989;53.398;6.564;2022-12-17T04:50:31;18.00;48.10
60455;DHT22;54989;53.398;6.564;2022-12-17T04:53:17;17.90;48.00
60455;DHT22;54989;53.398;6.564;2022-12-17T04:56:03;17.90;48.10
60455;DHT22;54989;53.398;6.564;2022-12-17T04:58:50;17.90;48.10
60455;DHT22;54989;53.398;6.564;2022-12-17T05:01:36;17.90;48.10
60455;DHT22;54989;53.398;6.564;2022-12-17T05:04:22;17.90;48.10
60455;DHT22;54989;53.398;6.564;2022-12-17T05:07:08;17.90;48.10
60455;DHT22;54989;53.398;6.564;2022-12-17T05:09:54;17.80;48.10
60455;DHT22;54989;53.398;6.564;2022-12-17T05:12:39;17.80;48.80
60455;DHT22;54989;53.398;6.564;2022-12-17T05:15:25;17.80;48.20
60455;DHT22;54989;53.398;6.564;2022-12-17T05:18:18;17.80;48.10
60455;DHT22;54989;53.398;6.564;2022-12-17T05:21:04;17.80;48.20
60455;DHT22;54989;53.398;6.564;2022-12-17T05:23:53;17.80;48.20
60455;DHT22;54989;53.398;6.564;2022-12-17T05:26:39;17.80;48.20
60455;DHT22;54989;53.398;6.564;2022-12-17T05:29:24;17.70;48.10
60455;DHT22;54989;53.398;6.564;2022-12-17T05:32:10;17.70;48.10
60455;DHT22;54989;53.398;6.564;2022-12-17T05:34:56;17.70;48.10
60455;DHT22;54989;53.398;6.564;2022-12-17T05:37:42;17.70;48.10
60455;DHT22;54989;53.398;6.564;2022-12-17T05:40:27;17.70;48.10
60455;DHT22;54989;53.398;6.564;2022-12-17T05:43:13;17.70;48.10
60455;DHT22;54989;53.398;6.564;2022-12-17T05:45:59;17.60;48.10
60455;DHT22;54989;53.398;6.564;2022-12-17T05:48:45;17.60;48.10
60455;DHT22;54989;53.398;6.564;2022-12-17T05:51:31;17.60;48.20
60455;DHT22;54989;53.398;6.564;2022-12-17T05:54:17;17.60;48.20
60455;DHT22;54989;53.398;6.564;2022-12-17T05:57:03;17.60;48.30
60455;DHT22;54989;53.398;6.564;2022-12-17T05:59:49;17.60;48.30
60455;DHT22;54989;53.398;6.564;2022-12-17T06:02:43;17.50;48.20
60455;DHT22;54989;53.398;6.564;2022-12-17T06:05:30;17.60;48.30
60455;DHT22;54989;53.398;6.564;2022-12-17T06:08:16;17.50;48.30
60455;DHT22;54989;53.398;6.564;2022-12-17T06:11:02;17.50;48.30
60455;DHT22;54989;53.398;6.564;2022-12-17T06:13:47;17.60;48.30
60455;DHT22;54989;53.398;6.564;2022-12-17T06:16:33;17.50;48.30
60455;DHT22;54989;53.398;6.564;2022-12-17T06:19:19;17.50;48.30
60455;DHT22;54989;53.398;6.564;2022-12-17T06:22:05;17.50;48.20
60455;DHT22;54989;53.398;6.564;2022-12-17T06:24:51;17.50;48.20
60455;DHT22;54989;53.398;6.564;2022-12-17T06:27:36;17.50;48.20
60455;DHT22;54989;53.398;6.564;2022-12-17T06:30:22;17.50;48.20
60455;DHT22;54989;53.398;6.564;2022-12-17T06:33:10;17.50;48.60
60455;DHT22;54989;53.398;6.564;2022-12-17T06:35:57;17.50;48.40
60455;DHT22;54989;53.398;6.564;2022-12-17T06:38:49;17.50;48.40
60455;DHT22;54989;53.398;6.564;2022-12-17T06:41:35;17.50;48.40
60455;DHT22;54989;53.398;6.564;2022-12-17T06:44:30;17.50;48.40
60455;DHT22;54989;53.398;6.564;2022-12-17T06:47:16;17.40;48.40
60455;DHT22;54989;53.398;6.564;2022-12-17T06:50:03;17.40;48.40
60455;DHT22;54989;53.398;6.564;2022-12-17T06:53:03;17.50;48.50
60455;DHT22;54989;53.398;6.564;2022-12-17T06:55:50;17.40;48.40
60455;DHT22;54989;53.398;6.564;2022-12-17T06:58:38;17.40;48.40
60455;DHT22;54989;53.398;6.564;2022-12-17T07:01:24;17.40;48.40
60455;DHT22;54989;53.398;6.564;2022-12-17T07:04:10;17.40;48.40
60455;DHT22;54989;53.398;6.564;2022-12-17T07:06:56;17.40;48.50
60455;DHT22;54989;53.398;6.564;2022-12-17T07:09:42;17.40;48.40
60455;DHT22;54989;53.398;6.564;2022-12-17T07:12:28;17.50;48.40
60455;DHT22;54989;53.398;6.564;2022-12-17T07:15:14;17.40;48.30
60455;DHT22;54989;53.398;6.564;2022-12-17T07:18:02;17.40;48.40
60455;DHT22;54989;53.398;6.564;2022-12-17T07:20:52;17.40;48.40
60455;DHT22;54989;53.398;6.564;2022-12-17T07:23:38;17.40;48.50
60455;DHT22;54989;53.398;6.564;2022-12-17T07:26:24;17.40;48.40
60455;DHT22;54989;53.398;6.564;2022-12-17T07:29:10;17.40;48.80
60455;DHT22;54989;53.398;6.564;2022-12-17T07:31:55;17.40;48.40
60455;DHT22;54989;53.398;6.564;2022-12-17T07:34:41;17.40;48.40
60455;DHT22;54989;53.398;6.564;2022-12-17T07:37:27;17.40;48.40
60455;DHT22;54989;53.398;6.564;2022-12-17T07:40:13;17.40;48.80
60455;DHT22;54989;53.398;6.564;2022-12-17T07:42:58;17.40;48.40
60455;DHT22;54989;53.398;6.564;2022-12-17T07:45:44;17.40;48.50
60455;DHT22;54989;53.398;6.564;2022-12-17T07:48:30;17.40;48.50
60455;DHT22;54989;53.398;6.564;2022-12-17T07:51:16;17.40;48.50
60455;DHT22;54989;53.398;6.564;2022-12-17T07:54:02;17.40;48.50
60455;DHT22;54989;53.398;6.564;2022-12-17T07:56:48;17.30;48.40
60455;DHT22;54989;53.398;6.564;2022-12-17T07:59:34;17.30;48.50
60455;DHT22;54989;53.398;6.564;2022-12-17T08:02:20;17.30;48.50
60455;DHT22;54989;53.398;6.564;2022-12-17T08:05:06;17.30;48.70
60455;DHT22;54989;53.398;6.564;2022-12-17T08:07:52;17.30;48.50
60455;DHT22;54989;53.398;6.564;2022-12-17T08:10:38;17.30;48.50
60455;DHT22;54989;53.398;6.564;2022-12-17T08:13:24;17.30;48.70
60455;DHT22;54989;53.398;6.564;2022-12-17T08:16:10;17.30;48.70
60455;DHT22;54989;53.398;6.564;2022-12-17T08:18:55;17.30;48.60
60455;DHT22;54989;53.398;6.564;2022-12-17T08:21:41;17.30;48.60
60455;DHT22;54989;53.398;6.564;2022-12-17T08:24:27;17.30;48.80
60455;DHT22;54989;53.398;6.564;2022-12-17T08:27:13;17.40;48.70
60455;DHT22;54989;53.398;6.564;2022-12-17T08:30:00;17.50;48.60
60455;DHT22;54989;53.398;6.564;2022-12-17T08:32:46;17.50;48.50
60455;DHT22;54989;53.398;6.564;2022-12-17T08:35:32;17.60;48.30
60455;DHT22;54989;53.398;6.564;2022-12-17T08:38:18;17.70;48.30
60455;DHT22;54989;53.398;6.564;2022-12-17T08:41:04;17.80;48.20
60455;DHT22;54989;53.398;6.564;2022-12-17T08:43:49;17.90;48.10
60455;DHT22;54989;53.398;6.564;2022-12-17T08:46:35;17.90;48.00
60455;DHT22;54989;53.398;6.564;2022-12-17T08:49:21;17.90;48.00
60455;DHT22;54989;53.398;6.564;2022-12-17T08:52:07;18.00;49.50
60455;DHT22;54989;53.398;6.564;2022-12-17T08:54:52;18.00;47.90
60455;DHT22;54989;53.398;6.564;2022-12-17T08:57:38;18.00;47.80
60455;DHT22;54989;53.398;6.564;2022-12-17T09:00:25;18.10;47.80
60455;DHT22;54989;53.398;6.564;2022-12-17T09:03:11;18.10;47.90
60455;DHT22;54989;53.398;6.564;2022-12-17T09:05:57;18.20;47.80
60455;DHT22;54989;53.398;6.564;2022-12-17T09:08:43;18.30;48.10
60455;DHT22;54989;53.398;6.564;2022-12-17T09:11:28;18.30;47.90
60455;DHT22;54989;53.398;6.564;2022-12-17T09:14:14;18.30;47.70
60455;DHT22;54989;53.398;6.564;2022-12-17T09:17:00;18.30;47.70
60455;DHT22;54989;53.398;6.564;2022-12-17T09:19:46;18.40;47.70
60455;DHT22;54989;53.398;6.564;2022-12-17T09:22:32;18.50;47.90
60455;DHT22;54989;53.398;6.564;2022-12-17T09:25:18;18.50;47.90
60455;DHT22;54989;53.398;6.564;2022-12-17T09:28:04;18.60;47.90
60455;DHT22;54989;53.398;6.564;2022-12-17T09:30:49;18.60;47.90
60455;DHT22;54989;53.398;6.564;2022-12-17T09:33:36;18.70;47.90
60455;DHT22;54989;53.398;6.564;2022-12-17T09:36:22;18.80;47.80
60455;DHT22;54989;53.398;6.564;2022-12-17T09:39:15;18.90;47.90
60455;DHT22;54989;53.398;6.564;2022-12-17T09:42:24;19.00;47.70
60455;DHT22;54989;53.398;6.564;2022-12-17T09:51:01;19.70;47.20
60455;DHT22;54989;53.398;6.564;2022-12-17T09:53:50;19.90;46.90
60455;DHT22;54989;53.398;6.564;2022-12-17T09:56:38;20.10;46.90
60455;DHT22;54989;53.398;6.564;2022-12-17T09:59:27;20.30;46.60
60455;DHT22;54989;53.398;6.564;2022-12-17T10:02:19;20.50;46.50
60455;DHT22;54989;53.398;6.564;2022-12-17T10:05:08;20.70;46.30
60455;DHT22;54989;53.398;6.564;2022-12-17T10:07:58;20.90;46.10
60455;DHT22;54989;53.398;6.564;2022-12-17T10:10:45;21.10;46.10
60455;DHT22;54989;53.398;6.564;2022-12-17T10:13:38;21.20;45.70
60455;DHT22;54989;53.398;6.564;2022-12-17T10:16:28;21.40;45.60
60455;DHT22;54989;53.398;6.564;2022-12-17T10:19:33;21.60;45.40
60455;DHT22;54989;53.398;6.564;2022-12-17T10:22:20;21.80;45.10
60455;DHT22;54989;53.398;6.564;2022-12-17T10:25:17;22.00;45.50
60455;DHT22;54989;53.398;6.564;2022-12-17T10:28:14;22.10;45.20
60455;DHT22;54989;53.398;6.564;2022-12-17T10:31:05;22.40;44.40
60455;DHT22;54989;53.398;6.564;2022-12-17T10:33:57;22.40;45.80
60455;DHT22;54989;53.398;6.564;2022-12-17T10:36:48;22.50;44.60
60455;DHT22;54989;53.398;6.564;2022-12-17T10:39:36;22.50;44.60
60455;DHT22;54989;53.398;6.564;2022-12-17T10:42:29;22.60;44.40
60455;DHT22;54989;53.398;6.564;2022-12-17T10:45:32;22.70;44.30
60455;DHT22;54989;53.398;6.564;2022-12-17T10:48:28;22.70;44.10
60455;DHT22;54989;53.398;6.564;2022-12-17T10:54:23;22.60;44.00
60455;DHT22;54989;53.398;6.564;2022-12-17T10:57:35;22.60;44.10
60455;DHT22;54989;53.398;6.564;2022-12-17T11:00:26;22.50;44.10
60455;DHT22;54989;53.398;6.564;2022-12-17T11:03:30;22.50;44.40
60455;DHT22;54989;53.398;6.564;2022-12-17T11:06:30;22.50;44.50
60455;DHT22;54989;53.398;6.564;2022-12-17T11:12:56;22.40;44.60
60455;DHT22;54989;53.398;6.564;2022-12-17T11:15:55;22.40;44.80
60455;DHT22;54989;53.398;6.564;2022-12-17T11:19:30;22.30;44.90
60455;DHT22;54989;53.398;6.564;2022-12-17T11:25:46;22.20;45.10
60455;DHT22;54989;53.398;6.564;2022-12-17T11:28:35;22.10;45.10
60455;DHT22;54989;53.398;6.564;2022-12-17T11:41:45;21.80;45.00
60455;DHT22;54989;53.398;6.564;2022-12-17T11:44:47;21.70;45.40
60455;DHT22;54989;53.398;6.564;2022-12-17T11:51:03;21.60;45.90
60455;DHT22;54989;53.398;6.564;2022-12-17T11:57:04;21.50;45.90
60455;DHT22;54989;53.398;6.564;2022-12-17T11:59:59;21.50;45.90
60455;DHT22;54989;53.398;6.564;2022-12-17T12:06:02;21.40;46.00
60455;DHT22;54989;53.398;6.564;2022-12-17T12:15:25;21.30;46.10
60455;DHT22;54989;53.398;6.564;2022-12-17T12:19:29;21.30;46.20
60455;DHT22;54989;53.398;6.564;2022-12-17T12:28:39;21.20;46.40
60455;DHT22;54989;53.398;6.564;2022-12-17T12:31:40;21.20;46.40
60455;DHT22;54989;53.398;6.564;2022-12-17T12:34:32;21.10;46.50
60455;DHT22;54989;53.398;6.564;2022-12-17T12:37:20;21.10;46.40
60455;DHT22;54989;53.398;6.564;2022-12-17T12:40:32;21.10;46.50
60455;DHT22;54989;53.398;6.564;2022-12-17T12:43:25;21.10;46.50
60455;DHT22;54989;53.398;6.564;2022-12-17T12:49:24;20.90;46.40
60455;DHT22;54989;53.398;6.564;2022-12-17T12:52:17;21.00;46.60
60455;DHT22;54989;53.398;6.564;2022-12-17T12:55:04;20.90;46.60
60455;DHT22;54989;53.398;6.564;2022-12-17T12:58:04;20.80;46.70
60455;DHT22;54989;53.398;6.564;2022-12-17T13:01:05;20.80;46.70
60455;DHT22;54989;53.398;6.564;2022-12-17T13:03:53;20.80;46.70
60455;DHT22;54989;53.398;6.564;2022-12-17T13:06:54;20.80;46.70
60455;DHT22;54989;53.398;6.564;2022-12-17T13:09:31;20.80;47.50
60455;DHT22;54989;53.398;6.564;2022-12-17T13:24:54;20.70;47.00
60455;DHT22;54989;53.398;6.564;2022-12-17T13:43:51;20.50;47.10
60455;DHT22;54989;53.398;6.564;2022-12-17T13:49:03;20.50;47.30
60455;DHT22;54989;53.398;6.564;2022-12-17T13:51:33;20.50;47.10
60455;DHT22;54989;53.398;6.564;2022-12-17T13:54:03;20.50;47.10
60455;DHT22;54989;53.398;6.564;2022-12-17T13:56:36;20.40;47.10
60455;DHT22;54989;53.398;6.564;2022-12-17T13:59:04;20.40;47.10
60455;DHT22;54989;53.398;6.564;2022-12-17T14:01:52;20.40;47.10
60455;DHT22;54989;53.398;6.564;2022-12-17T14:04:26;20.30;47.10
60455;DHT22;54989;53.398;6.564;2022-12-17T14:06:58;20.30;47.20
60455;DHT22;54989;53.398;6.564;2022-12-17T14:09:41;20.30;47.20
60455;DHT22;54989;53.398;6.564;2022-12-17T14:12:11;20.20;47.20
60455;DHT22;54989;53.398;6.564;2022-12-17T14:14:54;20.20;47.30
60455;DHT22;54989;53.398;6.564;2022-12-17T14:17:28;20.20;47.30
60455;DHT22;54989;53.398;6.564;2022-12-17T14:20:12;20.10;47.30
60455;DHT22;54989;53.398;6.564;2022-12-17T14:22:45;20.10;47.50
60455;DHT22;54989;53.398;6.564;2022-12-17T14:25:26;20.10;47.30
60455;DHT22;54989;53.398;6.564;2022-12-17T14:27:58;20.10;47.30
60455;DHT22;54989;53.398;6.564;2022-12-17T14:30:40;20.10;47.30
60455;DHT22;54989;53.398;6.564;2022-12-17T14:33:35;20.10;47.30
60455;DHT22;54989;53.398;6.564;2022-12-17T14:36:20;20.00;47.30
60455;DHT22;54989;53.398;6.564;2022-12-17T14:38:53;20.00;47.40
60455;DHT22;54989;53.398;6.564;2022-12-17T14:41:24;20.00;47.40
60455;DHT22;54989;53.398;6.564;2022-12-17T14:44:25;20.00;47.40
60455;DHT22;54989;53.398;6.564;2022-12-17T14:55:24;19.90;47.40
60455;DHT22;54989;53.398;6.564;2022-12-17T14:57:53;19.90;47.50
60455;DHT22;54989;53.398;6.564;2022-12-17T15:00:32;19.90;47.40
60455;DHT22;54989;53.398;6.564;2022-12-17T15:03:00;19.90;47.50
60455;DHT22;54989;53.398;6.564;2022-12-17T15:05:28;19.80;47.50
60455;DHT22;54989;53.398;6.564;2022-12-17T15:07:55;19.80;47.60
60455;DHT22;54989;53.398;6.564;2022-12-17T15:10:23;19.80;47.60
60455;DHT22;54989;53.398;6.564;2022-12-17T15:12:50;19.80;47.60
60455;DHT22;54989;53.398;6.564;2022-12-17T15:15:19;19.80;47.60
60455;DHT22;54989;53.398;6.564;2022-12-17T15:17:48;19.80;47.60
60455;DHT22;54989;53.398;6.564;2022-12-17T15:20:18;19.70;47.60
60455;DHT22;54989;53.398;6.564;2022-12-17T15:22:47;19.70;47.60
60455;DHT22;54989;53.398;6.564;2022-12-17T15:25:16;19.70;47.70
60455;DHT22;54989;53.398;6.564;2022-12-17T15:27:45;19.70;47.70
60455;DHT22;54989;53.398;6.564;2022-12-17T15:30:14;19.70;47.70
60455;DHT22;54989;53.398;6.564;2022-12-17T15:32:42;19.70;47.60
60455;DHT22;54989;53.398;6.564;2022-12-17T15:35:11;19.60;47.60
60455;DHT22;54989;53.398;6.564;2022-12-17T15:37:39;19.60;47.70
60455;DHT22;54989;53.398;6.564;2022-12-17T15:40:07;19.70;47.70
60455;DHT22;54989;53.398;6.564;2022-12-17T15:42:37;19.60;47.60
60455;DHT22;54989;53.398;6.564;2022-12-17T15:45:32;19.60;47.50
60455;DHT22;54989;53.398;6.564;2022-12-17T15:48:00;19.60;47.60
60455;DHT22;54989;53.398;6.564;2022-12-17T15:50:27;19.60;47.60
60455;DHT22;54989;53.398;6.564;2022-12-17T15:52:55;19.60;47.60
60455;DHT22;54989;53.398;6.564;2022-12-17T15:55:22;19.60;47.60
60455;DHT22;54989;53.398;6.564;2022-12-17T15:57:50;19.60;47.60
60455;DHT22;54989;53.398;6.564;2022-12-17T16:00:17;19.60;47.60
60455;DHT22;54989;53.398;6.564;2022-12-17T16:02:47;19.50;47.60
60455;DHT22;54989;53.398;6.564;2022-12-17T16:09:31;19.70;50.20
60455;DHT22;54989;53.398;6.564;2022-12-17T16:11:58;20.20;46.70
60455;DHT22;54989;53.398;6.564;2022-12-17T16:14:26;20.50;45.90
60455;DHT22;54989;53.398;6.564;2022-12-17T16:16:53;20.50;45.90
60455;DHT22;54989;53.398;6.564;2022-12-17T16:19:21;20.40;45.90
60455;DHT22;54989;53.398;6.564;2022-12-17T16:21:49;20.30;46.00
60455;DHT22;54989;53.398;6.564;2022-12-17T16:24:16;20.20;46.20
60455;DHT22;54989;53.398;6.564;2022-12-17T16:26:44;20.10;46.30
60455;DHT22;54989;53.398;6.564;2022-12-17T16:29:13;20.00;46.50
60455;DHT22;54989;53.398;6.564;2022-12-17T16:31:40;19.90;46.70
60455;DHT22;54989;53.398;6.564;2022-12-17T16:34:08;19.80;46.80
60455;DHT22;54989;53.398;6.564;2022-12-17T16:36:36;19.70;46.80
60455;DHT22;54989;53.398;6.564;2022-12-17T16:39:04;19.60;47.00
60455;DHT22;54989;53.398;6.564;2022-12-17T16:41:32;19.60;47.00
60455;DHT22;54989;53.398;6.564;2022-12-17T16:43:59;19.60;47.20
60455;DHT22;54989;53.398;6.564;2022-12-17T16:46:28;19.50;47.30
60455;DHT22;54989;53.398;6.564;2022-12-17T16:48:56;19.50;47.30
60455;DHT22;54989;53.398;6.564;2022-12-17T16:51:24;19.40;47.30
60455;DHT22;54989;53.398;6.564;2022-12-17T16:53:56;19.40;47.30
60455;DHT22;54989;53.398;6.564;2022-12-17T16:56:24;19.40;47.40
60455;DHT22;54989;53.398;6.564;2022-12-17T16:58:53;19.40;47.40
60455;DHT22;54989;53.398;6.564;2022-12-17T17:01:22;19.40;47.40
60455;DHT22;54989;53.398;6.564;2022-12-17T17:03:49;19.30;47.40
60455;DHT22;54989;53.398;6.564;2022-12-17T17:06:17;19.30;47.50
60455;DHT22;54989;53.398;6.564;2022-12-17T17:08:46;19.30;47.40
60455;DHT22;54989;53.398;6.564;2022-12-17T17:11:17;19.30;47.40
60455;DHT22;54989;53.398;6.564;2022-12-17T17:13:47;19.30;48.10
60455;DHT22;54989;53.398;6.564;2022-12-17T17:16:16;19.20;47.40
60455;DHT22;54989;53.398;6.564;2022-12-17T17:18:44;19.20;47.50
60455;DHT22;54989;53.398;6.564;2022-12-17T17:21:15;19.20;47.60
60455;DHT22;54989;53.398;6.564;2022-12-17T17:23:43;19.20;47.80
60455;DHT22;54989;53.398;6.564;2022-12-17T17:26:11;19.20;47.80
60455;DHT22;54989;53.398;6.564;2022-12-17T17:28:40;19.20;47.80
60455;DHT22;54989;53.398;6.564;2022-12-17T17:31:08;19.20;47.80
60455;DHT22;54989;53.398;6.564;2022-12-17T17:33:37;19.20;47.80
60455;DHT22;54989;53.398;6.564;2022-12-17T17:36:06;19.20;47.70
60455;DHT22;54989;53.398;6.564;2022-12-17T17:38:34;19.30;47.70
60455;DHT22;54989;53.398;6.564;2022-12-17T17:41:02;19.30;47.50
60455;DHT22;54989;53.398;6.564;2022-12-17T17:43:31;19.30;47.50
60455;DHT22;54989;53.398;6.564;2022-12-17T17:48:33;19.20;47.50
60455;DHT22;54989;53.398;6.564;2022-12-17T17:51:03;19.20;47.50
60455;DHT22;54989;53.398;6.564;2022-12-17T17:53:31;19.20;47.60
60455;DHT22;54989;53.398;6.564;2022-12-17T17:56:05;19.20;47.60
60455;DHT22;54989;53.398;6.564;2022-12-17T17:58:33;19.20;47.70
60455;DHT22;54989;53.398;6.564;2022-12-17T18:01:09;19.20;47.70
60455;DHT22;54989;53.398;6.564;2022-12-17T18:03:36;19.10;47.70
60455;DHT22;54989;53.398;6.564;2022-12-17T18:06:06;19.10;47.60
60455;DHT22;54989;53.398;6.564;2022-12-17T18:08:34;19.20;47.70
60455;DHT22;54989;53.398;6.564;2022-12-17T18:11:03;19.20;47.70
60455;DHT22;54989;53.398;6.564;2022-12-17T18:13:33;19.10;47.60
60455;DHT22;54989;53.398;6.564;2022-12-17T18:16:29;19.10;47.60
60455;DHT22;54989;53.398;6.564;2022-12-17T18:18:59;19.10;47.60
60455;DHT22;54989;53.398;6.564;2022-12-17T18:21:28;19.10;47.60
60455;DHT22;54989;53.398;6.564;2022-12-17T18:24:01;19.10;47.70
60455;DHT22;54989;53.398;6.564;2022-12-17T18:26:29;19.10;47.60
60455;DHT22;54989;53.398;6.564;2022-12-17T18:29:00;19.20;47.70
60455;DHT22;54989;53.398;6.564;2022-12-17T18:31:30;19.20;47.70
60455;DHT22;54989;53.398;6.564;2022-12-17T18:33:58;19.20;47.60
60455;DHT22;54989;53.398;6.564;2022-12-17T18:36:27;19.20;47.60
60455;DHT22;54989;53.398;6.564;2022-12-17T18:38:55;19.20;47.60
60455;DHT22;54989;53.398;6.564;2022-12-17T18:41:23;19.20;47.50
60455;DHT22;54989;53.398;6.564;2022-12-17T18:44:11;19.20;47.60
60455;DHT22;54989;53.398;6.564;2022-12-17T18:46:38;19.30;47.60
60455;DHT22;54989;53.398;6.564;2022-12-17T18:49:07;19.30;47.50
60455;DHT22;54989;53.398;6.564;2022-12-17T18:51:35;19.30;47.60
60455;DHT22;54989;53.398;6.564;2022-12-17T18:54:03;19.30;47.60
60455;DHT22;54989;53.398;6.564;2022-12-17T18:56:33;19.30;47.50
60455;DHT22;54989;53.398;6.564;2022-12-17T18:59:21;19.30;47.40